KHKS

Hawkins Field Airport

Jackson, Mississippi, USA
METAR KHKS 221953Z 00000KT 10SM CLR 21/06 A3017 RMK AO2 SLP209 T02110061
Observed Flight Rules
Oct-22 @ 19:53 UTC (55 minutes ago) Visual Flight Rules
Visibility Clouds
10 miles
  • Clear skies
Temperatures Readings
Current 21°C / 70°F
Dewpoint 6°C / 43°F
Humidity 38%
Altimeter 30.17" Hg
Pressure 1020.9 hPa
Elevation 108
METAR KHKS 221953Z 00000KT 10SM CLR 21/06 A3017 RMK AO2 SLP209 T02110061
Observed Flight Rules
Oct-22 @ 19:53 UTC
(55 minutes ago)
VFR
Clouds
  • Clear skies
Temperature Dewpoint
21°C / 70°F 6°C / 43°F
Humidity Altimeter Pressure
38% 30.17" Hg 1020.9 hPa